createdAt,value
2022-09-14T00:01:25.927Z,6.57
2022-09-14T00:03:27.986Z,7.18
2022-09-14T00:05:29.549Z,6.32
2022-09-14T00:07:31.072Z,6.82
2022-09-14T00:09:32.879Z,6.35
2022-09-14T00:11:36.105Z,6.90
2022-09-14T00:13:38.660Z,7.20
2022-09-14T00:15:41.989Z,6.75
2022-09-14T00:17:43.642Z,7.22
2022-09-14T00:19:45.176Z,7.05
2022-09-14T00:21:50.833Z,6.93
2022-09-14T00:23:52.818Z,7.00
2022-09-14T00:25:54.425Z,6.32
2022-09-14T00:27:56.598Z,7.40
2022-09-14T00:29:58.126Z,7.43
2022-09-14T00:31:59.849Z,6.90
2022-09-14T00:34:02.701Z,6.90
2022-09-14T00:36:10.570Z,7.10
2022-09-14T00:38:12.123Z,7.03
2022-09-14T00:40:13.677Z,7.13
2022-09-14T00:42:19.439Z,8.55
2022-09-14T00:44:20.908Z,7.82
2022-09-14T00:46:22.846Z,7.25
2022-09-14T00:48:25.548Z,8.05
2022-09-14T00:50:27.075Z,6.97
2022-09-14T00:52:32.828Z,7.25
2022-09-14T00:54:58.505Z,7.05
2022-09-14T00:57:01.947Z,6.78
2022-09-14T00:59:09.402Z,7.15
2022-09-14T01:01:10.982Z,7.28
2022-09-14T01:03:12.586Z,7.18
2022-09-14T01:05:14.802Z,6.93
2022-09-14T01:07:26.589Z,7.32
2022-09-14T01:09:49.891Z,7.05
2022-09-14T01:12:00.352Z,6.75
2022-09-14T01:14:46.399Z,7.57
2022-09-14T01:17:10.723Z,7.22
2022-09-14T01:19:23.839Z,6.40
2022-09-14T01:21:32.659Z,6.78
2022-09-14T01:24:06.865Z,6.60
2022-09-14T01:26:08.408Z,6.78
2022-09-14T01:28:17.229Z,7.07
2022-09-14T01:30:21.156Z,6.85
2022-09-14T01:33:05.452Z,6.93
2022-09-14T01:35:25.910Z,6.80
2022-09-14T01:37:54.651Z,6.70
2022-09-14T01:40:01.566Z,6.82
2022-09-14T01:42:03.981Z,6.75
2022-09-14T01:44:23.256Z,6.97
2022-09-14T01:46:29.924Z,5.25
2022-09-14T01:48:45.347Z,7.47
2022-09-14T01:50:50.068Z,6.43
2022-09-14T01:53:08.001Z,7.07
2022-09-14T01:55:15.413Z,6.90
2022-09-14T01:57:27.677Z,7.55
2022-09-14T01:59:37.100Z,6.78
2022-09-14T02:01:45.505Z,7.30
2022-09-14T02:03:52.769Z,7.43
2022-09-14T02:06:01.683Z,7.75
2022-09-14T02:08:03.491Z,7.05
2022-09-14T02:10:09.007Z,7.32
2022-09-14T02:12:10.747Z,7.32
2022-09-14T02:14:12.281Z,7.72
2022-09-14T02:16:14.211Z,7.75
2022-09-14T02:18:15.995Z,8.07
2022-09-14T02:20:24.969Z,7.72
2022-09-14T02:22:28.025Z,7.33
2022-09-14T02:24:29.848Z,7.75
2022-09-14T02:26:31.732Z,8.25
2022-09-14T02:28:33.355Z,8.05
2022-09-14T02:31:18.172Z,8.27
2022-09-14T02:33:28.283Z,8.45
2022-09-14T02:35:38.565Z,8.50
2022-09-14T02:37:53.065Z,8.48
2022-09-14T02:40:25.292Z,7.95
2022-09-14T02:42:41.250Z,8.43
2022-09-14T02:44:51.692Z,7.40
2022-09-14T02:47:05.045Z,8.23
2022-09-14T02:49:21.461Z,8.52
2022-09-14T02:51:40.308Z,9.90
2022-09-14T02:53:47.579Z,10.68
2022-09-14T02:55:52.684Z,9.75
2022-09-14T02:58:03.434Z,10.98
2022-09-14T03:00:05.355Z,11.70
2022-09-14T03:02:06.866Z,11.63
2022-09-14T03:04:08.411Z,11.57
2022-09-14T03:06:10.152Z,11.73
2022-09-14T03:08:12.227Z,10.63
2022-09-14T03:10:13.815Z,12.20
2022-09-14T03:12:15.552Z,12.65
2022-09-14T03:14:17.135Z,12.40
2022-09-14T03:16:19.231Z,12.07
2022-09-14T03:18:20.852Z,12.50
2022-09-14T03:20:25.355Z,13.48
2022-09-14T03:22:26.846Z,13.23
2022-09-14T03:24:28.390Z,13.85
2022-09-14T03:26:30.023Z,13.75
2022-09-14T03:28:31.551Z,13.55
2022-09-14T03:30:33.675Z,15.75
2022-09-14T03:32:35.445Z,14.35
2022-09-14T03:34:37.047Z,12.70
2022-09-14T03:36:38.539Z,13.40
2022-09-14T03:38:43.895Z,12.40
2022-09-14T03:40:45.485Z,13.30
2022-09-14T03:42:48.401Z,15.38
2022-09-14T03:44:50.122Z,13.45
2022-09-14T03:46:51.670Z,11.20
2022-09-14T03:48:54.579Z,11.18
2022-09-14T03:50:56.091Z,11.07
2022-09-14T03:52:58.158Z,11.48
2022-09-14T03:54:59.683Z,12.25
2022-09-14T03:57:01.241Z,10.55
2022-09-14T03:59:02.747Z,9.30
2022-09-14T04:01:08.689Z,9.20
2022-09-14T04:03:10.234Z,8.30
2022-09-14T04:05:11.792Z,8.27
2022-09-14T04:07:13.268Z,8.13
2022-09-14T04:09:14.879Z,8.52
2022-09-14T04:11:20.288Z,7.47
2022-09-14T04:13:21.817Z,7.35
2022-09-14T04:15:23.368Z,8.68
2022-09-14T04:17:25.271Z,8.15
2022-09-14T04:19:26.773Z,8.43
2022-09-14T04:21:28.570Z,8.07
2022-09-14T04:23:30.135Z,8.20
2022-09-14T04:25:31.659Z,8.10
2022-09-14T04:27:33.250Z,7.57
2022-09-14T04:29:34.857Z,7.22
2022-09-14T04:31:36.445Z,8.02
2022-09-14T04:33:39.697Z,7.20
2022-09-14T04:35:41.263Z,6.85
2022-09-14T04:37:42.763Z,7.20
2022-09-14T04:39:44.376Z,6.55
2022-09-14T04:41:46.339Z,7.15
2022-09-14T04:43:50.556Z,6.85
2022-09-14T04:45:52.755Z,7.20
2022-09-14T04:47:54.550Z,6.63
2022-09-14T04:49:56.058Z,7.70
2022-09-14T04:51:57.548Z,9.48
2022-09-14T04:54:00.244Z,7.95
2022-09-14T04:56:02.921Z,7.75
2022-09-14T04:58:04.734Z,7.20
2022-09-14T05:00:06.792Z,6.78
2022-09-14T05:02:08.435Z,7.15
2022-09-14T05:04:11.675Z,7.30
2022-09-14T05:06:21.077Z,7.60
2022-09-14T05:08:22.572Z,8.38
2022-09-14T05:10:24.097Z,8.27
2022-09-14T05:12:25.636Z,8.00
2022-09-14T05:14:27.142Z,8.07
2022-09-14T05:16:34.605Z,7.30
2022-09-14T05:18:36.448Z,7.45
2022-09-14T05:20:39.168Z,7.38
2022-09-14T05:22:40.790Z,7.18
2022-09-14T05:24:42.276Z,7.00
2022-09-14T05:26:44.601Z,7.07
2022-09-14T05:28:50.209Z,9.57
2022-09-14T05:30:51.817Z,7.00
2022-09-14T05:32:57.460Z,7.20
2022-09-14T05:34:59.632Z,6.63
2022-09-14T05:37:01.140Z,6.72
2022-09-14T05:39:02.642Z,6.40
2022-09-14T05:41:05.232Z,7.05
2022-09-14T05:43:06.732Z,7.97
2022-09-14T05:45:08.533Z,7.35
2022-09-14T05:47:10.026Z,6.85
2022-09-14T05:49:11.517Z,8.13
2022-09-14T05:51:15.938Z,7.80
2022-09-14T05:53:17.586Z,7.65
2022-09-14T05:55:19.113Z,6.63
2022-09-14T05:57:20.645Z,5.88
2022-09-14T05:59:22.223Z,5.88
2022-09-14T06:01:29.060Z,5.07
2022-09-14T06:03:30.642Z,4.68
2022-09-14T06:05:32.233Z,5.28
2022-09-14T06:07:33.746Z,5.40
2022-09-14T06:09:35.459Z,6.20
2022-09-14T06:11:37.010Z,6.10
2022-09-14T06:13:38.690Z,5.93
2022-09-14T06:15:40.188Z,5.20
2022-09-14T06:17:41.712Z,5.55
2022-09-14T06:19:43.248Z,5.80
2022-09-14T06:21:44.793Z,5.45
2022-09-14T06:23:47.603Z,6.50
2022-09-14T06:25:49.196Z,7.13
2022-09-14T06:27:54.390Z,6.32
2022-09-14T06:29:55.948Z,7.10
2022-09-14T06:31:57.502Z,6.95
2022-09-14T06:33:59.068Z,5.85
2022-09-14T06:36:05.380Z,5.43
2022-09-14T06:38:06.879Z,6.20
2022-09-14T06:40:08.827Z,5.35
2022-09-14T06:42:10.400Z,6.25
2022-09-14T06:44:11.907Z,6.00
2022-09-14T06:46:16.476Z,6.75
2022-09-14T06:48:18.448Z,6.70
2022-09-14T06:50:20.021Z,6.40
2022-09-14T06:52:21.611Z,6.10
2022-09-14T06:54:23.784Z,6.38
2022-09-14T06:56:25.542Z,6.03
2022-09-14T06:58:27.031Z,6.72
2022-09-14T07:00:28.538Z,6.93
2022-09-14T07:02:30.125Z,6.90
2022-09-14T07:04:31.735Z,6.43
2022-09-14T07:06:39.578Z,7.75
2022-09-14T07:08:41.462Z,7.32
2022-09-14T07:10:44.190Z,6.45
2022-09-14T07:12:45.706Z,6.05
2022-09-14T07:14:47.211Z,6.03
2022-09-14T07:16:48.818Z,6.18
2022-09-14T07:18:53.977Z,6.70
2022-09-14T07:20:56.011Z,6.25
2022-09-14T07:22:57.637Z,6.57
2022-09-14T07:24:59.197Z,6.25
2022-09-14T07:27:00.776Z,6.35
2022-09-14T07:29:05.038Z,6.35
2022-09-14T07:31:15.923Z,6.47
2022-09-14T07:33:17.472Z,6.50
2022-09-14T07:35:19.104Z,6.30
2022-09-14T07:37:20.616Z,6.20
2022-09-14T07:39:22.141Z,6.35
2022-09-14T07:41:29.077Z,6.65
2022-09-14T07:43:30.859Z,6.13
2022-09-14T07:45:32.490Z,6.18
2022-09-14T07:47:34.235Z,6.75
2022-09-14T07:49:35.726Z,6.25
2022-09-14T07:51:37.934Z,6.07
2022-09-14T07:53:45.688Z,5.90
2022-09-14T07:55:47.261Z,6.00
2022-09-14T07:57:56.932Z,5.43
2022-09-14T07:59:58.741Z,6.50
2022-09-14T08:02:00.472Z,6.25
2022-09-14T08:04:05.432Z,4.95
2022-09-14T08:06:10.944Z,6.65
2022-09-14T08:08:12.491Z,5.53
2022-09-14T08:10:14.132Z,4.90
2022-09-14T08:12:18.330Z,5.05
2022-09-14T08:14:19.862Z,5.05
2022-09-14T08:16:22.727Z,4.85
2022-09-14T08:18:24.320Z,4.10
2022-09-14T08:20:25.842Z,4.35
2022-09-14T08:22:27.779Z,9.20
2022-09-14T08:24:29.311Z,6.40
2022-09-14T08:26:31.546Z,4.45
2022-09-14T08:28:33.972Z,4.35
2022-09-14T08:30:35.500Z,4.88
2022-09-14T08:32:37.036Z,4.60
2022-09-14T08:34:38.794Z,4.70
2022-09-14T08:36:41.722Z,4.32
2022-09-14T08:38:43.745Z,3.95
2022-09-14T08:40:45.916Z,5.43
2022-09-14T08:42:48.212Z,12.75
2022-09-14T08:44:53.712Z,5.25
2022-09-14T08:46:59.883Z,3.30
2022-09-14T08:49:07.330Z,3.45
2022-09-14T08:51:09.539Z,3.65
2022-09-14T08:53:11.068Z,3.63
2022-09-14T08:55:34.488Z,4.05
2022-09-14T08:57:44.284Z,3.20
2022-09-14T09:00:04.343Z,3.83
2022-09-14T09:02:24.355Z,3.22
2022-09-14T09:04:35.403Z,3.80
2022-09-14T09:06:42.881Z,3.33
2022-09-14T09:09:00.530Z,3.60
2022-09-14T09:11:05.670Z,3.13
2022-09-14T09:13:12.083Z,3.08
2022-09-14T09:15:23.929Z,2.97
2022-09-14T09:17:29.593Z,3.92
2022-09-14T09:19:39.309Z,4.07
2022-09-14T09:21:45.431Z,3.53
2022-09-14T09:23:47.301Z,4.05
2022-09-14T09:25:54.090Z,3.47
2022-09-14T09:28:02.706Z,3.30
2022-09-14T09:30:04.642Z,2.83
2022-09-14T09:32:08.147Z,3.03
2022-09-14T09:34:15.093Z,3.50
2022-09-14T09:36:17.251Z,5.10
2022-09-14T09:38:24.849Z,3.90
2022-09-14T09:40:34.381Z,3.20
2022-09-14T09:42:36.022Z,7.97
2022-09-14T09:45:04.199Z,17.70
2022-09-14T09:47:06.052Z,4.25
2022-09-14T09:49:22.018Z,35.40
2022-09-14T09:51:24.137Z,22.50
2022-09-14T09:53:25.968Z,19.55
2022-09-14T09:55:35.480Z,20.60
2022-09-14T09:57:37.361Z,16.65
2022-09-14T09:59:44.300Z,13.35
2022-09-14T10:01:45.926Z,17.42
2022-09-14T10:04:00.633Z,10.50
2022-09-14T10:06:07.715Z,11.50
2022-09-14T10:08:15.132Z,12.40
2022-09-14T10:10:19.351Z,5.03
2022-09-14T10:12:21.083Z,11.68
2022-09-14T10:14:26.522Z,9.32
2022-09-14T10:16:34.791Z,7.75
2022-09-14T10:18:36.469Z,4.70
2022-09-14T10:20:53.061Z,4.88
2022-09-14T10:22:54.599Z,7.30
2022-09-14T10:24:59.144Z,8.48
2022-09-14T10:27:00.808Z,10.88
2022-09-14T10:29:28.993Z,7.57
2022-09-14T10:31:32.663Z,14.70
2022-09-14T10:33:35.294Z,6.47
2022-09-14T10:35:49.251Z,3.83
2022-09-14T10:38:17.970Z,4.50
2022-09-14T10:40:20.983Z,6.20
2022-09-14T10:42:31.764Z,5.53
2022-09-14T10:44:52.280Z,4.95
2022-09-14T10:47:06.159Z,7.03
2022-09-14T10:49:29.068Z,11.75
2022-09-14T10:52:10.954Z,5.30
2022-09-14T10:54:27.667Z,4.93
2022-09-14T10:56:53.616Z,11.00
2022-09-14T10:59:07.100Z,18.05
2022-09-14T11:01:23.457Z,24.30
2022-09-14T11:03:33.686Z,15.23
2022-09-14T11:06:27.382Z,12.35
2022-09-14T11:08:36.564Z,7.07
2022-09-14T11:11:01.099Z,10.43
2022-09-14T11:13:36.300Z,7.57
2022-09-14T11:15:59.711Z,4.18
2022-09-14T11:18:14.356Z,6.40
2022-09-14T11:20:48.035Z,8.90
2022-09-14T11:23:18.550Z,6.72
2022-09-14T11:25:24.101Z,4.88
2022-09-14T11:27:36.819Z,6.60
2022-09-14T11:29:42.983Z,7.68
2022-09-14T11:32:16.905Z,7.60
2022-09-14T11:34:25.807Z,3.97
2022-09-14T11:36:49.288Z,3.63
2022-09-14T11:38:57.985Z,3.63
2022-09-14T11:41:21.752Z,3.03
2022-09-14T11:43:26.871Z,10.70
2022-09-14T11:45:41.342Z,12.02
2022-09-14T11:47:51.478Z,6.78
2022-09-14T11:50:00.341Z,5.30
2022-09-14T11:52:11.570Z,7.53
2022-09-14T11:54:19.328Z,4.00
2022-09-14T11:56:34.059Z,3.45
2022-09-14T11:58:36.167Z,3.22
2022-09-14T12:01:18.535Z,3.50
2022-09-14T12:03:22.101Z,3.90
2022-09-14T12:05:26.302Z,3.25
2022-09-14T12:07:39.676Z,4.32
2022-09-14T12:09:42.511Z,9.88
2022-09-14T12:11:45.421Z,16.42
2022-09-14T12:13:46.923Z,4.00
2022-09-14T12:15:48.483Z,4.22
2022-09-14T12:17:51.665Z,4.95
2022-09-14T12:19:56.169Z,8.38
2022-09-14T12:22:38.820Z,6.68
2022-09-14T12:24:40.373Z,15.98
2022-09-14T12:26:42.108Z,12.07
2022-09-14T12:28:51.544Z,4.95
2022-09-14T12:30:53.479Z,4.63
2022-09-14T12:32:55.110Z,10.90
2022-09-14T12:35:34.463Z,9.40
2022-09-14T12:37:36.298Z,9.32
2022-09-14T12:39:37.991Z,6.82
2022-09-14T12:41:39.438Z,4.97
2022-09-14T12:43:53.677Z,7.30
2022-09-14T12:46:05.317Z,9.38
2022-09-14T12:48:08.534Z,8.65
2022-09-14T12:50:17.705Z,5.72
2022-09-14T12:52:40.572Z,6.13
2022-09-14T12:55:04.526Z,9.50
2022-09-14T12:57:24.527Z,5.82
2022-09-14T12:59:42.288Z,5.55
2022-09-14T13:02:14.480Z,18.42
2022-09-14T13:04:23.789Z,8.50
2022-09-14T13:06:33.876Z,12.50
2022-09-14T13:08:36.227Z,16.52
2022-09-14T13:10:44.368Z,6.63
2022-09-14T13:12:46.799Z,19.33
2022-09-14T13:14:51.877Z,25.77
2022-09-14T13:16:54.106Z,13.85
2022-09-14T13:19:04.807Z,5.95
2022-09-14T13:21:22.289Z,9.38
2022-09-14T13:23:44.038Z,11.13
2022-09-14T13:25:45.537Z,11.20
2022-09-14T13:27:48.104Z,10.00
2022-09-14T13:29:59.211Z,7.57
2022-09-14T13:32:03.719Z,9.60
2022-09-14T13:34:06.129Z,8.60
2022-09-14T13:36:07.640Z,7.32
2022-09-14T13:38:16.205Z,5.30
2022-09-14T13:40:23.054Z,6.32
2022-09-14T13:42:25.225Z,9.52
2022-09-14T13:44:30.940Z,7.80
2022-09-14T13:46:32.555Z,5.88
2022-09-14T13:48:36.523Z,5.50
2022-09-14T13:50:38.090Z,5.45
2022-09-14T13:55:27.576Z,6.07
2022-09-14T13:57:29.326Z,5.72
2022-09-14T13:59:30.842Z,6.20
2022-09-14T14:01:34.387Z,6.25
2022-09-14T14:03:48.087Z,5.50
2022-09-14T14:05:49.622Z,5.68
2022-09-14T14:07:52.158Z,5.50
2022-09-14T14:09:56.079Z,5.85
2022-09-14T14:11:57.778Z,6.22
2022-09-14T14:14:21.539Z,6.05
2022-09-14T14:16:26.335Z,6.15
2022-09-14T14:18:52.416Z,5.95
2022-09-14T14:21:14.214Z,7.05
2022-09-14T14:23:21.771Z,6.00
2022-09-14T14:25:43.444Z,5.80
2022-09-14T14:27:47.925Z,10.50
2022-09-14T14:29:52.178Z,8.30
2022-09-14T14:31:57.201Z,7.80
2022-09-14T14:33:59.212Z,8.20
2022-09-14T14:36:01.983Z,8.20
2022-09-14T14:38:03.484Z,9.25
2022-09-14T14:40:05.864Z,9.35
2022-09-14T14:42:07.816Z,9.93
2022-09-14T14:44:15.763Z,10.18
2022-09-14T14:46:17.690Z,9.15
2022-09-14T14:48:19.422Z,8.25
2022-09-14T14:50:29.945Z,7.93
2022-09-14T14:52:31.628Z,8.95
2022-09-14T14:54:33.173Z,13.38
2022-09-14T14:56:35.117Z,11.18
2022-09-14T14:58:45.810Z,10.05
2022-09-14T15:00:47.994Z,11.68
2022-09-14T15:02:50.180Z,12.15
2022-09-14T15:04:51.703Z,11.30
2022-09-14T15:06:53.534Z,10.80
2022-09-14T15:08:56.593Z,10.02
2022-09-14T15:10:58.531Z,10.23
2022-09-14T15:13:00.303Z,10.38
2022-09-14T15:15:02.090Z,10.43
2022-09-14T15:17:03.816Z,9.85
2022-09-14T15:19:05.439Z,10.15
2022-09-14T15:21:08.043Z,11.90
2022-09-14T15:23:12.081Z,12.73
2022-09-14T15:25:14.492Z,11.98
2022-09-14T15:27:16.056Z,12.55
2022-09-14T15:29:19.987Z,12.45
2022-09-14T15:31:21.696Z,12.30
2022-09-14T15:33:23.507Z,12.98
2022-09-14T15:35:25.027Z,12.82
2022-09-14T15:37:26.560Z,11.30
2022-09-14T15:39:31.286Z,11.13
2022-09-14T15:41:32.835Z,11.85
2022-09-14T15:43:35.040Z,15.98
2022-09-14T15:45:36.573Z,14.23
2022-09-14T15:47:38.151Z,22.63
2022-09-14T15:49:39.688Z,29.85
2022-09-14T15:51:45.839Z,20.48
2022-09-14T15:53:47.977Z,18.83
2022-09-14T15:55:49.484Z,12.05
2022-09-14T15:57:51.059Z,22.50
2022-09-14T15:59:54.277Z,15.15
2022-09-14T16:01:56.061Z,18.25
2022-09-14T16:04:06.434Z,17.77
2022-09-14T16:06:11.137Z,18.10
2022-09-14T16:08:12.682Z,18.60
2022-09-14T16:10:14.269Z,16.10
2022-09-14T16:12:16.142Z,16.95
2022-09-14T16:14:17.663Z,13.82
2022-09-14T16:16:20.415Z,20.33
2022-09-14T16:18:25.545Z,19.40
2022-09-14T16:20:27.104Z,13.77
2022-09-14T16:22:28.618Z,12.13
2022-09-14T16:24:31.170Z,15.05
2022-09-14T16:26:34.710Z,16.23
2022-09-14T16:28:44.014Z,13.95
2022-09-14T16:30:45.584Z,19.30
2022-09-14T16:32:47.437Z,20.75
2022-09-14T16:34:49.063Z,16.30
2022-09-14T16:36:51.232Z,13.40
2022-09-14T16:38:57.407Z,14.32
2022-09-14T16:41:00.365Z,12.88
2022-09-14T16:43:01.998Z,13.02
2022-09-14T16:45:03.751Z,12.65
2022-09-14T16:47:05.469Z,14.48
2022-09-14T16:49:07.332Z,13.75
2022-09-14T16:51:09.504Z,12.88
2022-09-14T16:53:11.010Z,14.02
2022-09-14T16:55:12.560Z,16.88
2022-09-14T16:57:14.480Z,20.50
2022-09-14T16:59:17.779Z,19.80
2022-09-14T17:01:25.212Z,16.92
2022-09-14T17:03:31.561Z,17.13
2022-09-14T17:05:33.430Z,14.63
2022-09-14T17:07:35.051Z,13.57
2022-09-14T17:09:36.840Z,13.90
2022-09-14T17:11:39.938Z,14.43
2022-09-14T17:13:43.387Z,14.80
2022-09-14T17:15:45.019Z,14.35
2022-09-14T17:17:46.594Z,13.43
2022-09-14T17:19:48.332Z,17.98
2022-09-14T17:21:50.717Z,27.33
2022-09-14T17:23:52.370Z,19.60
2022-09-14T17:25:54.200Z,15.00
2022-09-14T17:27:56.039Z,15.20
2022-09-14T17:29:57.568Z,16.10
2022-09-14T17:31:59.175Z,15.80
2022-09-14T17:34:02.157Z,15.80
2022-09-14T17:36:05.554Z,17.65
2022-09-14T17:38:07.093Z,16.45
2022-09-14T17:40:10.930Z,17.88
2022-09-14T17:42:12.577Z,20.80
2022-09-14T17:44:14.642Z,19.88
2022-09-14T17:46:16.826Z,18.17
2022-09-14T17:48:18.631Z,19.10
2022-09-14T17:50:21.207Z,19.13
2022-09-14T17:52:22.770Z,18.58
2022-09-14T17:54:24.431Z,21.73
2022-09-14T17:56:27.720Z,20.00
2022-09-14T17:58:29.355Z,18.60
2022-09-14T18:00:31.009Z,17.30
2022-09-14T18:02:32.538Z,18.20
2022-09-14T18:04:34.122Z,17.02
2022-09-14T18:06:38.470Z,16.08
2022-09-14T18:08:40.390Z,15.20
2022-09-14T18:10:41.958Z,15.32
2022-09-14T18:12:44.712Z,16.25
2022-09-14T18:14:46.932Z,27.60
2022-09-14T18:16:48.968Z,39.00
2022-09-14T18:18:50.902Z,38.47
2022-09-14T18:20:52.539Z,35.08
2022-09-14T18:22:55.372Z,23.85
2022-09-14T18:24:57.087Z,26.25
2022-09-14T18:26:59.481Z,28.25
2022-09-14T18:29:01.019Z,27.10
2022-09-14T18:31:16.071Z,27.67
2022-09-14T18:33:17.833Z,27.15
2022-09-14T18:35:19.450Z,28.45
2022-09-14T18:37:22.977Z,26.35
2022-09-14T18:39:24.813Z,24.67
2022-09-14T18:41:29.164Z,20.67
2022-09-14T18:43:31.263Z,17.58
2022-09-14T18:45:34.138Z,22.27
2022-09-14T18:47:35.805Z,25.80
2022-09-14T18:49:37.349Z,23.50
2022-09-14T18:51:39.231Z,19.90
2022-09-14T18:53:41.151Z,20.20
2022-09-14T18:55:42.831Z,20.13
2022-09-14T18:57:48.780Z,18.98
2022-09-14T18:59:50.334Z,19.15
2022-09-14T19:01:51.941Z,19.13
2022-09-14T19:03:56.079Z,19.13
2022-09-14T19:05:57.760Z,20.90
2022-09-14T19:07:59.935Z,22.95
2022-09-14T19:10:01.497Z,22.83
2022-09-14T19:12:03.269Z,25.52
2022-09-14T19:14:10.588Z,25.50
2022-09-14T19:16:16.564Z,27.35
2022-09-14T19:18:18.248Z,28.88
2022-09-14T19:20:22.253Z,31.67
2022-09-14T19:22:23.904Z,31.05
2022-09-14T19:24:30.767Z,27.00
2022-09-14T19:26:35.160Z,25.38
2022-09-14T19:28:37.491Z,26.05
2022-09-14T19:30:40.076Z,26.02
2022-09-14T19:32:41.706Z,25.90
2022-09-14T19:34:43.583Z,28.05
2022-09-14T19:36:45.332Z,26.02
2022-09-14T19:38:48.377Z,25.75
2022-09-14T19:40:52.873Z,24.70
2022-09-14T19:42:54.734Z,26.05
2022-09-14T19:44:56.340Z,26.95
2022-09-14T19:46:57.925Z,29.30
2022-09-14T19:48:59.554Z,32.35
2022-09-14T19:51:03.168Z,48.90
2022-09-14T19:53:04.801Z,73.22
2022-09-14T19:55:06.678Z,79.50
2022-09-14T19:57:08.288Z,61.65
2022-09-14T19:59:09.987Z,30.08
2022-09-14T20:01:11.585Z,30.73
2022-09-14T20:03:13.344Z,29.17
2022-09-14T20:05:15.759Z,26.50
2022-09-14T20:07:17.587Z,30.83
2022-09-14T20:09:21.856Z,26.67
2022-09-14T20:11:24.805Z,27.27
2022-09-14T20:13:26.305Z,26.45
2022-09-14T20:15:29.424Z,26.73
2022-09-14T20:17:30.970Z,26.02
2022-09-14T20:19:33.053Z,25.48
2022-09-14T20:21:36.239Z,28.73
2022-09-14T20:23:48.621Z,29.35
2022-09-14T20:26:06.197Z,31.40
2022-09-14T20:28:07.962Z,32.63
2022-09-14T20:30:10.017Z,33.90
2022-09-14T20:32:11.526Z,33.88
2022-09-14T20:34:13.986Z,29.90
2022-09-14T20:36:17.605Z,29.27
2022-09-14T20:38:19.127Z,33.28
2022-09-14T20:40:20.653Z,32.20
2022-09-14T20:42:22.263Z,35.08
2022-09-14T20:44:23.828Z,39.15
2022-09-14T20:46:36.527Z,42.92
2022-09-14T20:48:38.717Z,41.13
2022-09-14T20:50:40.200Z,37.97
2022-09-14T20:52:41.718Z,39.25
2022-09-14T20:54:43.308Z,36.80
2022-09-14T20:56:46.221Z,35.20
2022-09-14T20:58:48.493Z,27.67
2022-09-14T21:01:13.867Z,38.85
2022-09-14T21:03:15.420Z,43.50
2022-09-14T21:05:17.061Z,40.78
2022-09-14T21:07:18.575Z,42.67
2022-09-14T21:09:21.394Z,40.15
2022-09-14T21:11:24.599Z,42.38
2022-09-14T21:13:26.101Z,44.50
2022-09-14T21:15:27.634Z,45.53
2022-09-14T21:17:29.117Z,42.47
2022-09-14T21:19:31.161Z,42.17
2022-09-14T21:21:33.053Z,39.22
2022-09-14T21:23:34.615Z,38.28
2022-09-14T21:25:36.227Z,36.88
2022-09-14T21:27:37.713Z,35.88
2022-09-14T21:29:39.224Z,33.47
2022-09-14T21:31:40.803Z,34.00
2022-09-14T21:33:44.159Z,35.20
2022-09-14T21:35:45.708Z,34.25
2022-09-14T21:37:48.616Z,33.78
2022-09-14T21:39:50.256Z,34.17
2022-09-14T21:41:58.427Z,34.15
2022-09-14T21:44:00.958Z,34.88
2022-09-14T21:46:02.551Z,34.75
2022-09-14T21:48:04.403Z,34.67
2022-09-14T21:50:06.574Z,35.78
2022-09-14T21:52:08.507Z,34.70
2022-09-14T21:54:11.611Z,34.17
2022-09-14T21:56:14.028Z,36.10
2022-09-14T21:58:15.540Z,33.45
2022-09-14T22:00:17.068Z,37.28
2022-09-14T22:02:18.638Z,35.10
2022-09-14T22:04:23.344Z,35.25
2022-09-14T22:06:27.615Z,36.30
2022-09-14T22:08:31.246Z,31.90
2022-09-14T22:10:34.605Z,31.48
2022-09-14T22:12:36.112Z,29.27
2022-09-14T22:14:37.700Z,27.25
2022-09-14T22:16:39.551Z,22.05
2022-09-14T22:18:47.287Z,18.42
2022-09-14T22:20:59.282Z,18.35
2022-09-14T22:23:01.665Z,18.00
2022-09-14T22:25:04.559Z,16.85
2022-09-14T22:27:08.317Z,16.05
2022-09-14T22:29:10.582Z,15.93
2022-09-14T22:31:12.249Z,15.93
2022-09-14T22:33:13.867Z,15.55
2022-09-14T22:35:15.444Z,14.10
2022-09-14T22:37:16.957Z,13.23
2022-09-14T22:39:18.505Z,13.23
2022-09-14T22:41:22.262Z,14.07
2022-09-14T22:43:24.398Z,13.45
2022-09-14T22:45:25.918Z,13.63
2022-09-14T22:47:27.397Z,14.45
2022-09-14T22:49:28.929Z,15.13
2022-09-14T22:51:31.318Z,15.60
2022-09-14T22:53:34.144Z,14.45
2022-09-14T22:55:42.364Z,14.88
2022-09-14T22:57:43.851Z,13.25
2022-09-14T22:59:45.374Z,12.43
2022-09-14T23:01:46.906Z,11.77
2022-09-14T23:03:48.433Z,11.70
2022-09-14T23:05:52.269Z,11.40
2022-09-14T23:07:55.200Z,11.27
2022-09-14T23:09:56.752Z,10.68
2022-09-14T23:11:58.303Z,9.93
2022-09-14T23:13:59.960Z,10.75
2022-09-14T23:16:01.870Z,10.15
2022-09-14T23:18:03.426Z,10.18
2022-09-14T23:20:05.502Z,10.57
2022-09-14T23:22:07.284Z,11.88
2022-09-14T23:24:08.972Z,11.95
2022-09-14T23:26:11.966Z,13.35
2022-09-14T23:28:13.473Z,13.10
2022-09-14T23:30:15.077Z,14.65
2022-09-14T23:32:16.581Z,15.25
2022-09-14T23:34:18.097Z,15.85
2022-09-14T23:36:20.133Z,17.17
2022-09-14T23:38:21.969Z,19.08
2022-09-14T23:40:23.646Z,19.65
2022-09-14T23:42:25.262Z,21.00
2022-09-14T23:44:26.786Z,22.25
2022-09-14T23:46:28.356Z,24.80
2022-09-14T23:48:29.907Z,26.10
2022-09-14T23:50:31.918Z,29.20
2022-09-14T23:52:33.453Z,31.30
2022-09-14T23:54:34.978Z,30.33
2022-09-14T23:56:38.590Z,34.13
2022-09-14T23:58:41.908Z,36.03
